createdAt,value
2023-05-04T00:00:53.507Z,2.23
2023-05-04T00:03:19.767Z,2.17
2023-05-04T00:05:45.870Z,2.23
2023-05-04T00:08:11.968Z,2.27
2023-05-04T00:10:38.038Z,2.20
2023-05-04T00:13:04.208Z,2.30
2023-05-04T00:15:30.368Z,2.70
2023-05-04T00:17:56.649Z,2.40
2023-05-04T00:20:22.733Z,2.67
2023-05-04T00:22:48.833Z,2.40
2023-05-04T00:25:15.010Z,2.80
2023-05-04T00:27:41.058Z,2.60
2023-05-04T00:30:08.059Z,2.67
2023-05-04T00:32:34.622Z,2.50
2023-05-04T00:35:00.862Z,2.43
2023-05-04T00:37:26.970Z,2.73
2023-05-04T00:39:53.086Z,2.70
2023-05-04T00:42:19.113Z,2.53
2023-05-04T00:44:45.152Z,2.30
2023-05-04T00:47:11.742Z,2.47
2023-05-04T00:49:37.897Z,2.43
2023-05-04T00:52:04.671Z,2.37
2023-05-04T00:54:31.335Z,2.07
2023-05-04T00:56:57.387Z,2.10
2023-05-04T00:59:23.446Z,2.07
2023-05-04T01:01:49.589Z,2.40
2023-05-04T01:04:16.040Z,2.30
2023-05-04T01:06:55.742Z,2.63
2023-05-04T01:09:26.667Z,2.30
2023-05-04T01:12:05.878Z,2.30
2023-05-04T01:14:35.772Z,2.80
2023-05-04T01:17:04.541Z,2.70
2023-05-04T01:19:31.118Z,2.30
2023-05-04T01:21:57.775Z,2.80
2023-05-04T01:24:24.941Z,2.10
2023-05-04T01:26:55.228Z,2.70
2023-05-04T01:29:28.764Z,2.50
2023-05-04T01:31:55.714Z,2.70
2023-05-04T01:34:22.468Z,2.23
2023-05-04T01:36:49.053Z,2.40
2023-05-04T01:39:15.303Z,2.53
2023-05-04T01:41:41.504Z,2.17
2023-05-04T01:44:07.674Z,2.43
2023-05-04T01:46:33.812Z,2.50
2023-05-04T01:49:00.019Z,2.00
2023-05-04T01:51:26.087Z,2.27
2023-05-04T01:53:52.167Z,2.23
2023-05-04T01:56:18.570Z,2.43
2023-05-04T01:58:44.904Z,2.83
2023-05-04T02:01:11.136Z,2.47
2023-05-04T02:03:37.401Z,2.57
2023-05-04T02:06:03.548Z,2.33
2023-05-04T02:08:29.684Z,2.93
2023-05-04T02:10:55.815Z,2.63
2023-05-04T02:13:22.416Z,2.60
2023-05-04T02:15:48.483Z,2.40
2023-05-04T02:18:14.534Z,2.87
2023-05-04T02:20:40.592Z,2.73
2023-05-04T02:23:06.709Z,3.03
2023-05-04T02:25:32.780Z,2.90
2023-05-04T02:27:58.859Z,2.73
2023-05-04T02:30:24.940Z,2.70
2023-05-04T02:32:51.051Z,2.93
2023-05-04T02:35:17.213Z,4.60
2023-05-04T02:37:43.302Z,5.30
2023-05-04T02:40:09.996Z,3.33
2023-05-04T02:42:36.032Z,3.27
2023-05-04T02:45:02.100Z,3.00
2023-05-04T02:47:28.255Z,2.70
2023-05-04T02:49:54.357Z,3.33
2023-05-04T02:52:20.407Z,3.50
2023-05-04T02:54:46.484Z,3.50
2023-05-04T02:57:12.548Z,3.30
2023-05-04T02:59:38.653Z,2.93
2023-05-04T03:02:04.794Z,3.70
2023-05-04T03:04:30.952Z,3.83
2023-05-04T03:06:57.047Z,4.23
2023-05-04T03:09:23.160Z,3.90
2023-05-04T03:11:49.285Z,3.80
2023-05-04T03:14:15.605Z,3.97
2023-05-04T03:16:41.713Z,3.80
2023-05-04T03:19:07.840Z,4.10
2023-05-04T03:21:33.901Z,3.10
2023-05-04T03:23:59.934Z,3.77
2023-05-04T03:26:26.033Z,3.53
2023-05-04T03:28:52.337Z,3.03
2023-05-04T03:31:18.430Z,3.50
2023-05-04T03:33:44.650Z,3.90
2023-05-04T03:36:10.817Z,3.33
2023-05-04T03:38:36.915Z,3.07
2023-05-04T03:41:02.957Z,3.37
2023-05-04T03:43:29.022Z,3.10
2023-05-04T03:45:55.149Z,3.30
2023-05-04T03:48:21.284Z,4.00
2023-05-04T03:50:47.379Z,3.67
2023-05-04T03:53:13.452Z,3.60
2023-05-04T03:55:39.534Z,3.97
2023-05-04T03:58:05.595Z,4.00
2023-05-04T04:00:31.779Z,4.20
2023-05-04T04:02:57.929Z,4.07
2023-05-04T04:05:24.076Z,4.10
2023-05-04T04:07:50.258Z,4.07
2023-05-04T04:10:16.319Z,5.30
2023-05-04T04:12:42.536Z,5.17
2023-05-04T04:15:09.028Z,4.73
2023-05-04T04:17:35.175Z,3.77
2023-05-04T04:20:01.236Z,4.33
2023-05-04T04:22:27.314Z,4.37
2023-05-04T04:24:53.363Z,4.13
2023-05-04T04:27:19.915Z,4.20
2023-05-04T04:29:46.115Z,4.47
2023-05-04T04:32:12.658Z,4.10
2023-05-04T04:34:39.091Z,4.00
2023-05-04T04:37:05.310Z,4.20
2023-05-04T04:39:32.031Z,4.50
2023-05-04T04:41:58.172Z,4.77
2023-05-04T04:44:24.316Z,4.60
2023-05-04T04:46:50.832Z,4.50
2023-05-04T04:49:17.188Z,4.50
2023-05-04T04:51:43.827Z,4.40
2023-05-04T04:54:10.580Z,5.90
2023-05-04T04:56:39.851Z,4.20
2023-05-04T04:59:06.404Z,4.40
2023-05-04T05:01:32.759Z,4.70
2023-05-04T05:03:59.338Z,4.37
2023-05-04T05:06:25.801Z,5.13
2023-05-04T05:08:52.566Z,4.70
2023-05-04T05:11:18.706Z,4.03
2023-05-04T05:13:44.836Z,4.70
2023-05-04T05:16:10.994Z,4.53
2023-05-04T05:18:37.096Z,4.53
2023-05-04T05:21:03.483Z,4.70
2023-05-04T05:23:29.532Z,4.50
2023-05-04T05:25:56.006Z,4.70
2023-05-04T05:28:22.289Z,4.23
2023-05-04T05:30:51.125Z,5.20
2023-05-04T05:33:17.703Z,5.07
2023-05-04T05:35:44.269Z,4.80
2023-05-04T05:38:10.787Z,5.30
2023-05-04T05:40:36.881Z,5.20
2023-05-04T05:43:04.800Z,4.50
2023-05-04T05:45:30.871Z,4.90
2023-05-04T05:47:57.004Z,5.27
2023-05-04T05:50:23.598Z,5.30
2023-05-04T05:52:49.973Z,5.40
2023-05-04T05:55:16.223Z,4.50
2023-05-04T05:57:42.278Z,5.10
2023-05-04T06:00:08.874Z,5.20
2023-05-04T06:02:35.098Z,5.30
2023-05-04T06:05:01.811Z,5.03
2023-05-04T06:07:28.090Z,5.50
2023-05-04T06:09:54.182Z,5.40
2023-05-04T06:12:20.745Z,5.30
2023-05-04T06:14:47.280Z,5.30
2023-05-04T06:17:13.440Z,5.53
2023-05-04T06:19:39.878Z,7.50
2023-05-04T06:22:06.044Z,6.47
2023-05-04T06:24:32.230Z,6.50
2023-05-04T06:26:58.311Z,6.20
2023-05-04T06:29:24.851Z,6.50
2023-05-04T06:31:51.132Z,7.00
2023-05-04T06:34:17.571Z,6.70
2023-05-04T06:36:44.009Z,6.30
2023-05-04T06:39:10.379Z,6.20
2023-05-04T06:41:36.499Z,6.67
2023-05-04T06:44:06.791Z,6.23
2023-05-04T06:46:38.966Z,6.50
2023-05-04T06:49:05.107Z,6.57
2023-05-04T06:51:31.515Z,6.47
2023-05-04T06:53:59.039Z,7.10
2023-05-04T06:56:25.283Z,7.10
2023-05-04T06:58:51.474Z,6.50
2023-05-04T07:01:18.479Z,6.40
2023-05-04T07:03:44.765Z,5.97
2023-05-04T07:06:10.912Z,6.10
2023-05-04T07:08:36.983Z,5.77
2023-05-04T07:11:03.277Z,5.43
2023-05-04T07:13:29.354Z,5.03
2023-05-04T07:15:55.714Z,5.80
2023-05-04T07:18:22.359Z,4.90
2023-05-04T07:20:48.451Z,5.20
2023-05-04T07:23:14.512Z,5.20
2023-05-04T07:25:40.578Z,5.30
2023-05-04T07:28:06.685Z,5.60
2023-05-04T07:30:32.760Z,5.03
2023-05-04T07:32:58.838Z,4.77
2023-05-04T07:35:24.998Z,4.70
2023-05-04T07:37:51.085Z,5.37
2023-05-04T07:40:17.341Z,4.10
2023-05-04T07:42:43.467Z,4.53
2023-05-04T07:45:09.831Z,3.83
2023-05-04T07:47:36.506Z,3.80
2023-05-04T07:50:03.722Z,3.80
2023-05-04T07:52:30.001Z,4.00
2023-05-04T07:54:56.067Z,4.13
2023-05-04T07:57:22.272Z,4.50
2023-05-04T07:59:48.307Z,3.67
2023-05-04T08:02:14.493Z,4.40
2023-05-04T08:04:40.620Z,3.97
2023-05-04T08:09:32.706Z,4.60
2023-05-04T08:11:58.826Z,4.07
2023-05-04T08:14:24.934Z,3.67
2023-05-04T08:16:51.004Z,4.00
2023-05-04T08:19:18.244Z,4.00
2023-05-04T08:21:44.323Z,4.17
2023-05-04T08:24:10.704Z,4.00
2023-05-04T08:26:37.771Z,3.97
2023-05-04T08:29:06.750Z,4.03
2023-05-04T08:31:33.531Z,4.57
2023-05-04T08:34:00.271Z,4.37
2023-05-04T08:36:26.839Z,4.37
2023-05-04T08:38:53.059Z,3.60
2023-05-04T08:41:19.232Z,4.33
2023-05-04T08:43:46.019Z,4.13
2023-05-04T08:46:12.642Z,4.50
2023-05-04T08:48:38.874Z,3.83
2023-05-04T08:51:06.006Z,3.67
2023-05-04T08:53:37.203Z,5.03
2023-05-04T08:56:08.518Z,4.60
2023-05-04T08:58:37.167Z,3.67
2023-05-04T09:01:06.470Z,3.87
2023-05-04T09:03:33.384Z,3.83
2023-05-04T09:05:59.658Z,3.50
2023-05-04T09:08:26.202Z,4.37
2023-05-04T09:10:52.308Z,4.80
2023-05-04T09:13:18.541Z,4.30
2023-05-04T09:15:57.655Z,4.00
2023-05-04T09:18:24.148Z,4.00
2023-05-04T09:20:50.247Z,4.67
2023-05-04T09:23:17.256Z,4.43
2023-05-04T09:25:48.043Z,4.20
2023-05-04T09:28:15.331Z,4.20
2023-05-04T09:30:42.181Z,4.37
2023-05-04T09:33:08.784Z,4.47
2023-05-04T09:35:34.869Z,3.90
2023-05-04T09:38:00.945Z,3.23
2023-05-04T09:40:35.727Z,3.73
2023-05-04T09:43:01.991Z,3.90
2023-05-04T09:45:49.628Z,3.43
2023-05-04T09:48:16.839Z,3.93
2023-05-04T09:50:52.126Z,3.43
2023-05-04T09:53:20.777Z,3.50
2023-05-04T09:55:47.511Z,3.90
2023-05-04T09:58:17.908Z,3.93
2023-05-04T10:00:44.961Z,4.00
2023-05-04T10:03:11.528Z,3.53
2023-05-04T10:05:38.399Z,3.60
2023-05-04T10:08:05.145Z,3.70
2023-05-04T10:10:31.321Z,3.93
2023-05-04T10:12:57.394Z,4.90
2023-05-04T10:15:24.114Z,4.07
2023-05-04T10:18:02.886Z,4.27
2023-05-04T10:20:54.303Z,4.23
2023-05-04T10:23:31.886Z,4.30
2023-05-04T10:26:41.049Z,3.40
2023-05-04T10:29:24.203Z,3.87
2023-05-04T10:31:51.190Z,3.57
2023-05-04T10:34:32.215Z,3.73
2023-05-04T10:36:59.439Z,3.90
2023-05-04T10:39:29.661Z,3.50
2023-05-04T10:42:03.810Z,3.73
2023-05-04T10:44:32.323Z,3.07
2023-05-04T10:47:04.554Z,3.83
2023-05-04T10:49:32.068Z,3.70
2023-05-04T10:52:12.935Z,3.67
2023-05-04T10:54:40.593Z,3.40
2023-05-04T10:57:11.777Z,3.30
2023-05-04T10:59:38.804Z,3.33
2023-05-04T11:02:07.077Z,3.50
2023-05-04T11:04:34.104Z,3.33
2023-05-04T11:07:01.862Z,3.43
2023-05-04T11:09:35.446Z,3.63
2023-05-04T11:12:01.938Z,3.43
2023-05-04T11:14:28.476Z,3.10
2023-05-04T11:17:23.945Z,3.00
2023-05-04T11:19:53.857Z,2.73
2023-05-04T11:22:20.107Z,3.03
2023-05-04T11:24:47.879Z,2.73
2023-05-04T11:27:24.750Z,3.10
2023-05-04T11:29:55.135Z,3.00
2023-05-04T11:32:22.022Z,2.70
2023-05-04T11:34:48.298Z,2.90
2023-05-04T11:37:14.376Z,2.77
2023-05-04T11:39:40.612Z,3.20
2023-05-04T11:42:07.910Z,3.10
2023-05-04T11:44:35.434Z,2.73
2023-05-04T11:47:01.652Z,3.10
2023-05-04T11:49:30.364Z,2.57
2023-05-04T11:52:09.202Z,2.47
2023-05-04T11:54:36.345Z,3.07
2023-05-04T11:57:03.399Z,2.40
2023-05-04T11:59:32.539Z,2.70
2023-05-04T12:01:58.818Z,2.87
2023-05-04T12:04:30.209Z,2.57
2023-05-04T12:06:56.515Z,2.70
2023-05-04T12:09:22.664Z,2.43
2023-05-04T12:11:55.717Z,3.20
2023-05-04T12:14:23.747Z,2.90
2023-05-04T12:16:54.337Z,3.10
2023-05-04T12:19:20.382Z,2.60
2023-05-04T12:21:51.352Z,2.40
2023-05-04T12:24:18.090Z,2.83
2023-05-04T12:26:44.153Z,2.60
2023-05-04T12:29:10.313Z,2.30
2023-05-04T12:31:36.467Z,2.67
2023-05-04T12:34:02.524Z,2.80
2023-05-04T12:36:28.599Z,2.77
2023-05-04T12:38:54.703Z,2.97
2023-05-04T12:41:20.808Z,2.73
2023-05-04T12:43:46.860Z,3.07
2023-05-04T12:46:13.028Z,2.93
2023-05-04T12:48:39.636Z,2.93
2023-05-04T12:51:05.797Z,2.90
2023-05-04T12:53:32.000Z,2.67
2023-05-04T12:55:58.990Z,2.43
2023-05-04T12:58:25.302Z,4.53
2023-05-04T13:00:51.432Z,4.90
2023-05-04T13:03:17.930Z,2.70
2023-05-04T13:05:48.916Z,2.50
2023-05-04T13:08:16.469Z,2.67
2023-05-04T13:10:42.914Z,2.43
2023-05-04T13:13:09.114Z,2.60
2023-05-04T13:15:35.318Z,2.47
2023-05-04T13:18:01.512Z,2.40
2023-05-04T13:20:27.701Z,2.57
2023-05-04T13:22:56.184Z,2.67
2023-05-04T13:25:24.855Z,3.00
2023-05-04T13:27:51.147Z,2.30
2023-05-04T13:30:17.630Z,2.77
2023-05-04T13:32:43.771Z,2.23
2023-05-04T13:35:09.988Z,2.70
2023-05-04T13:37:37.460Z,2.03
2023-05-04T13:40:04.376Z,2.50
2023-05-04T13:42:30.569Z,2.60
2023-05-04T13:44:56.676Z,2.70
2023-05-04T13:47:23.755Z,2.70
2023-05-04T13:49:50.267Z,2.87
2023-05-04T13:52:16.385Z,2.80
2023-05-04T13:54:42.512Z,2.33
2023-05-04T13:57:08.599Z,2.10
2023-05-04T13:59:34.692Z,2.60
2023-05-04T14:02:00.849Z,2.23
2023-05-04T14:04:26.968Z,2.40
2023-05-04T14:06:53.553Z,2.70
2023-05-04T14:09:19.805Z,2.30
2023-05-04T14:11:46.531Z,2.07
2023-05-04T14:14:12.861Z,3.07
2023-05-04T14:16:39.247Z,2.50
2023-05-04T14:19:05.496Z,2.00
2023-05-04T14:21:31.620Z,2.80
2023-05-04T14:23:57.707Z,2.47
2023-05-04T14:26:23.790Z,2.50
2023-05-04T14:28:50.093Z,2.70
2023-05-04T14:31:16.151Z,4.40
2023-05-04T14:33:42.346Z,2.73
2023-05-04T14:36:10.200Z,2.83
2023-05-04T14:38:36.344Z,2.33
2023-05-04T14:41:03.715Z,2.10
2023-05-04T14:43:29.801Z,2.37
2023-05-04T14:45:56.476Z,2.37
2023-05-04T14:48:25.200Z,2.67
2023-05-04T14:50:52.471Z,2.67
2023-05-04T14:53:18.701Z,2.40
2023-05-04T14:55:45.010Z,2.57
2023-05-04T14:58:11.366Z,3.20
2023-05-04T15:00:37.665Z,2.80
2023-05-04T15:03:04.312Z,2.20
2023-05-04T15:05:30.436Z,2.30
2023-05-04T15:07:56.589Z,2.73
2023-05-04T15:10:24.020Z,2.60
2023-05-04T15:12:50.631Z,2.47
2023-05-04T15:15:16.958Z,2.50
2023-05-04T15:17:43.071Z,2.80
2023-05-04T15:20:10.373Z,2.37
2023-05-04T15:22:36.726Z,2.57
2023-05-04T15:25:03.406Z,2.60
2023-05-04T15:27:29.466Z,2.10
2023-05-04T15:29:55.528Z,2.50
2023-05-04T15:32:21.639Z,2.53
2023-05-04T15:35:01.166Z,2.57
2023-05-04T15:37:31.074Z,2.40
2023-05-04T15:39:58.183Z,2.60
2023-05-04T15:42:25.201Z,2.17
2023-05-04T15:44:52.297Z,2.23
2023-05-04T15:47:18.389Z,2.20
2023-05-04T15:49:44.439Z,2.00
2023-05-04T15:52:10.524Z,2.20
2023-05-04T15:54:36.646Z,2.40
2023-05-04T15:57:02.786Z,2.23
2023-05-04T15:59:28.848Z,2.43
2023-05-04T16:01:54.964Z,2.00
2023-05-04T16:04:21.888Z,2.37
2023-05-04T16:06:48.040Z,2.20
2023-05-04T16:09:19.465Z,2.17
2023-05-04T16:11:45.667Z,1.93
2023-05-04T16:14:11.730Z,2.80
2023-05-04T16:16:37.896Z,2.20
2023-05-04T16:19:19.248Z,2.07
2023-05-04T16:21:45.494Z,2.00
2023-05-04T16:24:12.901Z,1.87
2023-05-04T16:26:39.817Z,2.40
2023-05-04T16:29:06.161Z,2.40
2023-05-04T16:31:32.321Z,2.40
2023-05-04T16:33:58.445Z,2.67
2023-05-04T16:36:24.529Z,3.03
2023-05-04T16:38:50.776Z,2.70
2023-05-04T16:41:17.381Z,2.43
2023-05-04T16:43:43.510Z,2.83
2023-05-04T16:46:09.817Z,2.13
2023-05-04T16:48:37.341Z,2.60
2023-05-04T16:51:07.517Z,2.30
2023-05-04T16:53:34.440Z,2.90
2023-05-04T16:56:00.857Z,2.70
2023-05-04T16:58:27.649Z,2.57
2023-05-04T17:00:53.896Z,2.33
2023-05-04T17:03:20.044Z,2.80
2023-05-04T17:05:46.690Z,2.30
2023-05-04T17:08:12.955Z,2.30
2023-05-04T17:10:39.239Z,2.80
2023-05-04T17:13:06.501Z,2.87
2023-05-04T17:15:32.643Z,2.40
2023-05-04T17:17:59.898Z,2.60
2023-05-04T17:20:30.998Z,2.97
2023-05-04T17:22:57.898Z,2.40
2023-05-04T17:25:25.821Z,2.63
2023-05-04T17:27:52.924Z,2.67
2023-05-04T17:30:19.004Z,2.73
2023-05-04T17:32:45.096Z,2.83
2023-05-04T17:35:20.971Z,3.20
2023-05-04T17:37:51.262Z,2.90
2023-05-04T17:40:17.318Z,2.73
2023-05-04T17:42:43.472Z,3.00
2023-05-04T17:45:09.954Z,2.53
2023-05-04T17:47:36.080Z,5.97
2023-05-04T17:50:02.698Z,7.20
2023-05-04T17:52:28.768Z,3.07
2023-05-04T17:54:55.031Z,6.90
2023-05-04T17:57:21.205Z,3.63
2023-05-04T17:59:47.427Z,2.80
2023-05-04T18:02:13.596Z,2.80
2023-05-04T18:04:39.779Z,3.30
2023-05-04T18:07:05.837Z,2.90
2023-05-04T18:09:31.935Z,2.90
2023-05-04T18:11:58.078Z,2.93
2023-05-04T18:14:24.133Z,2.67
2023-05-04T18:16:50.381Z,3.27
2023-05-04T18:19:23.028Z,3.00
2023-05-04T18:21:52.792Z,2.70
2023-05-04T18:24:19.290Z,3.03
2023-05-04T18:26:46.034Z,2.63
2023-05-04T18:31:43.741Z,2.77
2023-05-04T18:34:09.828Z,2.83
2023-05-04T18:36:35.946Z,2.73
2023-05-04T18:39:02.147Z,2.70
2023-05-04T18:41:28.263Z,2.80
2023-05-04T18:43:55.339Z,2.33
2023-05-04T18:46:22.425Z,3.07
2023-05-04T18:48:49.438Z,3.00
2023-05-04T18:51:15.585Z,3.10
2023-05-04T18:53:41.764Z,3.40
2023-05-04T18:56:09.025Z,3.00
2023-05-04T18:58:36.281Z,3.03
2023-05-04T19:01:02.857Z,3.20
2023-05-04T19:03:28.980Z,2.77
2023-05-04T19:05:55.474Z,3.10
2023-05-04T19:08:21.668Z,3.50
2023-05-04T19:10:48.487Z,3.37
2023-05-04T19:13:15.456Z,3.47
2023-05-04T19:15:42.413Z,3.47
2023-05-04T19:18:08.617Z,3.70
2023-05-04T19:20:38.256Z,3.00
2023-05-04T19:23:04.421Z,3.00
2023-05-04T19:25:34.808Z,3.37
2023-05-04T19:28:08.168Z,3.10
2023-05-04T19:30:38.812Z,3.13
2023-05-04T19:33:06.114Z,3.00
2023-05-04T19:35:32.338Z,2.90
2023-05-04T19:38:00.851Z,3.67
2023-05-04T19:40:26.962Z,3.53
2023-05-04T19:42:53.023Z,3.37
2023-05-04T19:45:19.158Z,3.60
2023-05-04T19:47:45.482Z,5.10
2023-05-04T19:50:13.296Z,5.60
2023-05-04T19:52:39.428Z,4.03
2023-05-04T19:55:06.599Z,3.60
2023-05-04T19:57:32.806Z,3.50
2023-05-04T19:59:59.012Z,3.53
2023-05-04T20:02:25.361Z,3.97
2023-05-04T20:04:51.533Z,3.60
2023-05-04T20:07:17.594Z,6.07
2023-05-04T20:09:43.667Z,4.00
2023-05-04T20:12:10.551Z,5.23
2023-05-04T20:14:36.832Z,5.23
2023-05-04T20:17:03.116Z,5.07
2023-05-04T20:19:29.242Z,5.10
2023-05-04T20:21:55.322Z,6.50
2023-05-04T20:24:21.630Z,5.10
2023-05-04T20:26:47.687Z,5.60
2023-05-04T20:29:13.747Z,5.00
2023-05-04T20:31:40.606Z,4.50
2023-05-04T20:34:06.825Z,5.00
2023-05-04T20:36:33.519Z,4.63
2023-05-04T20:39:01.700Z,4.67
2023-05-04T20:41:28.006Z,5.00
2023-05-04T20:43:54.072Z,4.87
2023-05-04T20:46:20.311Z,3.90
2023-05-04T20:48:46.411Z,4.20
2023-05-04T20:51:14.390Z,4.07
2023-05-04T20:53:41.465Z,4.40
2023-05-04T20:56:07.559Z,4.20
2023-05-04T20:58:33.689Z,4.43
2023-05-04T21:01:03.736Z,5.33
2023-05-04T21:03:30.034Z,5.37
2023-05-04T21:05:56.702Z,4.90
2023-05-04T21:08:22.969Z,5.10
2023-05-04T21:10:49.186Z,5.50
2023-05-04T21:13:15.312Z,4.87
2023-05-04T21:15:41.403Z,8.33
2023-05-04T21:18:07.468Z,6.13
2023-05-04T21:20:33.552Z,4.53
2023-05-04T21:23:00.423Z,6.33
2023-05-04T21:25:26.469Z,4.57
2023-05-04T21:27:52.535Z,3.87
2023-05-04T21:30:18.808Z,4.10
2023-05-04T21:32:45.399Z,3.53
2023-05-04T21:35:11.494Z,3.30
2023-05-04T21:37:37.589Z,3.73
2023-05-04T21:40:04.097Z,3.80
2023-05-04T21:42:30.210Z,5.00
2023-05-04T21:44:56.779Z,4.83
2023-05-04T21:47:26.508Z,3.73
2023-05-04T21:49:53.201Z,4.00
2023-05-04T21:52:19.707Z,3.60
2023-05-04T21:54:46.108Z,4.37
2023-05-04T21:57:12.283Z,4.27
2023-05-04T21:59:38.377Z,4.40
2023-05-04T22:02:05.027Z,3.50
2023-05-04T22:04:31.677Z,3.80
2023-05-04T22:06:57.838Z,3.63
2023-05-04T22:09:24.143Z,3.60
2023-05-04T22:11:51.046Z,3.57
2023-05-04T22:14:17.712Z,3.50
2023-05-04T22:16:43.924Z,3.50
2023-05-04T22:19:10.143Z,4.33
2023-05-04T22:21:38.617Z,4.40
2023-05-04T22:24:06.277Z,4.30
2023-05-04T22:26:32.366Z,4.33
2023-05-04T22:28:59.002Z,4.30
2023-05-04T22:31:25.199Z,3.87
2023-05-04T22:33:51.379Z,3.90
2023-05-04T22:36:17.467Z,4.27
2023-05-04T22:38:43.532Z,4.10
2023-05-04T22:41:09.589Z,4.23
2023-05-04T22:43:35.713Z,4.40
2023-05-04T22:46:01.968Z,4.20
2023-05-04T22:48:28.144Z,3.80
2023-05-04T22:50:55.122Z,3.60
2023-05-04T22:53:21.424Z,3.80
2023-05-04T22:55:47.557Z,3.23
2023-05-04T22:58:13.642Z,4.00
2023-05-04T23:00:39.779Z,4.00
2023-05-04T23:03:06.858Z,5.20
2023-05-04T23:05:33.024Z,5.20
2023-05-04T23:07:59.068Z,4.23
2023-05-04T23:10:25.443Z,3.70
2023-05-04T23:12:51.552Z,4.50
2023-05-04T23:15:17.649Z,4.20
2023-05-04T23:17:43.768Z,3.60
2023-05-04T23:20:10.645Z,3.43
2023-05-04T23:22:36.844Z,4.33
2023-05-04T23:25:03.587Z,4.17
2023-05-04T23:27:29.624Z,3.70
2023-05-04T23:29:55.667Z,4.03
2023-05-04T23:32:21.775Z,4.33
2023-05-04T23:34:47.840Z,3.83
2023-05-04T23:37:14.486Z,5.50
2023-05-04T23:39:40.555Z,5.17
2023-05-04T23:42:06.640Z,5.50
2023-05-04T23:44:32.719Z,4.20
2023-05-04T23:46:58.778Z,4.13
2023-05-04T23:49:25.243Z,3.60
2023-05-04T23:51:52.128Z,4.70
2023-05-04T23:54:18.183Z,3.90
2023-05-04T23:56:44.256Z,3.70
2023-05-04T23:59:10.319Z,4.13
